sensor_id;sensor_type;location;lat;lon;timestamp;temperature;humidity
27376;DHT22;14844;51.302;6.354;2023-07-24T00:01:27;17.00;99.90
27376;DHT22;14844;51.302;6.354;2023-07-24T00:03:53;17.00;99.90
27376;DHT22;14844;51.302;6.354;2023-07-24T00:06:20;17.00;99.90
27376;DHT22;14844;51.302;6.354;2023-07-24T00:08:45;16.90;99.90
27376;DHT22;14844;51.302;6.354;2023-07-24T00:11:10;16.90;99.90
27376;DHT22;14844;51.302;6.354;2023-07-24T00:13:36;16.90;99.90
27376;DHT22;14844;51.302;6.354;2023-07-24T00:16:05;16.90;99.90
27376;DHT22;14844;51.302;6.354;2023-07-24T00:18:31;16.90;99.90
27376;DHT22;14844;51.302;6.354;2023-07-24T00:20:56;16.90;99.90
27376;DHT22;14844;51.302;6.354;2023-07-24T00:23:22;16.90;99.90
27376;DHT22;14844;51.302;6.354;2023-07-24T00:25:47;16.90;99.90
27376;DHT22;14844;51.302;6.354;2023-07-24T00:28:13;17.00;99.90
27376;DHT22;14844;51.302;6.354;2023-07-24T00:30:38;17.10;99.90
27376;DHT22;14844;51.302;6.354;2023-07-24T00:33:03;17.10;99.90
27376;DHT22;14844;51.302;6.354;2023-07-24T00:35:29;17.00;99.90
27376;DHT22;14844;51.302;6.354;2023-07-24T00:37:54;17.10;99.90
27376;DHT22;14844;51.302;6.354;2023-07-24T00:40:20;17.00;99.90
27376;DHT22;14844;51.302;6.354;2023-07-24T00:42:46;17.00;99.90
27376;DHT22;14844;51.302;6.354;2023-07-24T00:45:11;17.10;99.90
27376;DHT22;14844;51.302;6.354;2023-07-24T00:47:37;17.10;99.90
27376;DHT22;14844;51.302;6.354;2023-07-24T00:50:02;17.10;99.90
27376;DHT22;14844;51.302;6.354;2023-07-24T00:52:28;17.10;99.90
27376;DHT22;14844;51.302;6.354;2023-07-24T00:54:53;17.20;99.90
27376;DHT22;14844;51.302;6.354;2023-07-24T00:57:19;17.20;99.90
27376;DHT22;14844;51.302;6.354;2023-07-24T00:59:45;17.30;99.90
27376;DHT22;14844;51.302;6.354;2023-07-24T01:02:11;17.30;99.90
27376;DHT22;14844;51.302;6.354;2023-07-24T01:04:36;17.30;99.90
27376;DHT22;14844;51.302;6.354;2023-07-24T01:07:02;17.30;99.90
27376;DHT22;14844;51.302;6.354;2023-07-24T01:09:27;17.30;99.90
27376;DHT22;14844;51.302;6.354;2023-07-24T01:12:03;17.20;99.90
27376;DHT22;14844;51.302;6.354;2023-07-24T01:14:31;17.20;99.90
27376;DHT22;14844;51.302;6.354;2023-07-24T01:16:58;17.20;99.90
27376;DHT22;14844;51.302;6.354;2023-07-24T01:19:37;17.10;99.90
27376;DHT22;14844;51.302;6.354;2023-07-24T01:22:10;17.10;99.90
27376;DHT22;14844;51.302;6.354;2023-07-24T01:24:47;17.10;99.90
27376;DHT22;14844;51.302;6.354;2023-07-24T01:27:34;17.10;99.90
27376;DHT22;14844;51.302;6.354;2023-07-24T01:29:59;17.10;99.90
27376;DHT22;14844;51.302;6.354;2023-07-24T01:32:25;17.10;99.90
27376;DHT22;14844;51.302;6.354;2023-07-24T01:34:51;17.10;99.90
27376;DHT22;14844;51.302;6.354;2023-07-24T01:37:16;17.00;99.90
27376;DHT22;14844;51.302;6.354;2023-07-24T01:39:44;17.00;99.90
27376;DHT22;14844;51.302;6.354;2023-07-24T01:42:09;17.00;99.90
27376;DHT22;14844;51.302;6.354;2023-07-24T01:44:35;17.00;99.90
27376;DHT22;14844;51.302;6.354;2023-07-24T01:47:01;17.00;99.90
27376;DHT22;14844;51.302;6.354;2023-07-24T01:49:26;17.00;99.90
27376;DHT22;14844;51.302;6.354;2023-07-24T01:51:52;17.10;99.90
27376;DHT22;14844;51.302;6.354;2023-07-24T01:54:17;17.10;99.90
27376;DHT22;14844;51.302;6.354;2023-07-24T01:56:42;17.10;99.90
27376;DHT22;14844;51.302;6.354;2023-07-24T01:59:09;17.10;99.90
27376;DHT22;14844;51.302;6.354;2023-07-24T02:01:34;17.20;99.90
27376;DHT22;14844;51.302;6.354;2023-07-24T02:04:00;17.10;99.90
27376;DHT22;14844;51.302;6.354;2023-07-24T02:06:25;17.10;99.90
27376;DHT22;14844;51.302;6.354;2023-07-24T02:08:51;17.10;99.90
27376;DHT22;14844;51.302;6.354;2023-07-24T02:11:16;17.20;99.90
27376;DHT22;14844;51.302;6.354;2023-07-24T02:13:45;17.20;99.90
27376;DHT22;14844;51.302;6.354;2023-07-24T02:16:12;17.20;99.90
27376;DHT22;14844;51.302;6.354;2023-07-24T02:18:38;17.20;99.90
27376;DHT22;14844;51.302;6.354;2023-07-24T02:21:07;17.30;99.90
27376;DHT22;14844;51.302;6.354;2023-07-24T02:23:33;17.30;99.90
27376;DHT22;14844;51.302;6.354;2023-07-24T02:25:58;17.40;99.90
27376;DHT22;14844;51.302;6.354;2023-07-24T02:28:24;17.40;99.90
27376;DHT22;14844;51.302;6.354;2023-07-24T02:30:49;17.40;99.90
27376;DHT22;14844;51.302;6.354;2023-07-24T02:33:17;17.40;99.90
27376;DHT22;14844;51.302;6.354;2023-07-24T02:35:42;17.50;99.90
27376;DHT22;14844;51.302;6.354;2023-07-24T02:38:08;17.50;99.90
27376;DHT22;14844;51.302;6.354;2023-07-24T02:40:33;17.50;99.90
27376;DHT22;14844;51.302;6.354;2023-07-24T02:42:59;17.60;99.90
27376;DHT22;14844;51.302;6.354;2023-07-24T02:45:24;17.60;99.90
27376;DHT22;14844;51.302;6.354;2023-07-24T02:47:50;17.60;99.90
27376;DHT22;14844;51.302;6.354;2023-07-24T02:50:15;17.50;99.90
27376;DHT22;14844;51.302;6.354;2023-07-24T02:52:41;17.50;99.90
27376;DHT22;14844;51.302;6.354;2023-07-24T02:55:06;17.50;99.90
27376;DHT22;14844;51.302;6.354;2023-07-24T02:57:32;17.50;99.90
27376;DHT22;14844;51.302;6.354;2023-07-24T02:59:57;17.50;99.90
27376;DHT22;14844;51.302;6.354;2023-07-24T03:02:23;17.50;99.90
27376;DHT22;14844;51.302;6.354;2023-07-24T03:04:48;17.40;99.90
27376;DHT22;14844;51.302;6.354;2023-07-24T03:07:14;17.40;99.90
27376;DHT22;14844;51.302;6.354;2023-07-24T03:09:39;17.40;99.90
27376;DHT22;14844;51.302;6.354;2023-07-24T03:12:05;17.40;99.90
27376;DHT22;14844;51.302;6.354;2023-07-24T03:14:30;17.40;99.90
27376;DHT22;14844;51.302;6.354;2023-07-24T03:16:56;17.40;99.90
27376;DHT22;14844;51.302;6.354;2023-07-24T03:19:21;17.50;99.90
27376;DHT22;14844;51.302;6.354;2023-07-24T03:21:47;17.50;99.90
27376;DHT22;14844;51.302;6.354;2023-07-24T03:24:12;17.50;99.90
27376;DHT22;14844;51.302;6.354;2023-07-24T03:26:37;17.50;99.90
27376;DHT22;14844;51.302;6.354;2023-07-24T03:29:04;17.50;99.90
27376;DHT22;14844;51.302;6.354;2023-07-24T03:31:30;17.50;99.90
27376;DHT22;14844;51.302;6.354;2023-07-24T03:33:55;17.50;99.90
27376;DHT22;14844;51.302;6.354;2023-07-24T03:36:21;17.50;99.90
27376;DHT22;14844;51.302;6.354;2023-07-24T03:38:46;17.50;99.90
27376;DHT22;14844;51.302;6.354;2023-07-24T03:41:12;17.50;99.90
27376;DHT22;14844;51.302;6.354;2023-07-24T03:43:37;17.50;99.90
27376;DHT22;14844;51.302;6.354;2023-07-24T03:46:03;17.50;99.90
27376;DHT22;14844;51.302;6.354;2023-07-24T03:48:28;17.60;99.90
27376;DHT22;14844;51.302;6.354;2023-07-24T03:51:00;17.50;99.90
27376;DHT22;14844;51.302;6.354;2023-07-24T03:53:26;17.60;99.90
27376;DHT22;14844;51.302;6.354;2023-07-24T03:55:51;17.60;99.90
27376;DHT22;14844;51.302;6.354;2023-07-24T03:58:16;17.60;99.90
27376;DHT22;14844;51.302;6.354;2023-07-24T04:00:42;17.50;99.90
27376;DHT22;14844;51.302;6.354;2023-07-24T04:03:07;17.50;99.90
27376;DHT22;14844;51.302;6.354;2023-07-24T04:05:34;17.40;99.90
27376;DHT22;14844;51.302;6.354;2023-07-24T04:07:59;17.40;99.90
27376;DHT22;14844;51.302;6.354;2023-07-24T04:10:24;17.40;99.90
27376;DHT22;14844;51.302;6.354;2023-07-24T04:12:51;17.40;99.90
27376;DHT22;14844;51.302;6.354;2023-07-24T04:15:16;17.40;99.90
27376;DHT22;14844;51.302;6.354;2023-07-24T04:17:42;17.40;99.90
27376;DHT22;14844;51.302;6.354;2023-07-24T04:20:09;17.40;99.90
27376;DHT22;14844;51.302;6.354;2023-07-24T04:22:37;17.30;99.90
27376;DHT22;14844;51.302;6.354;2023-07-24T04:25:02;17.30;99.90
27376;DHT22;14844;51.302;6.354;2023-07-24T04:27:28;17.30;99.90
27376;DHT22;14844;51.302;6.354;2023-07-24T04:29:54;17.30;99.90
27376;DHT22;14844;51.302;6.354;2023-07-24T04:32:19;17.30;99.90
27376;DHT22;14844;51.302;6.354;2023-07-24T04:34:45;17.30;99.90
27376;DHT22;14844;51.302;6.354;2023-07-24T04:37:10;17.30;99.90
27376;DHT22;14844;51.302;6.354;2023-07-24T04:39:38;17.30;99.90
27376;DHT22;14844;51.302;6.354;2023-07-24T04:42:03;17.40;99.90
27376;DHT22;14844;51.302;6.354;2023-07-24T04:44:29;17.40;99.90
27376;DHT22;14844;51.302;6.354;2023-07-24T04:46:54;17.50;99.90
27376;DHT22;14844;51.302;6.354;2023-07-24T04:49:21;17.50;99.90
27376;DHT22;14844;51.302;6.354;2023-07-24T04:51:46;17.50;99.90
27376;DHT22;14844;51.302;6.354;2023-07-24T04:54:12;17.50;99.90
27376;DHT22;14844;51.302;6.354;2023-07-24T04:56:37;17.60;99.90
27376;DHT22;14844;51.302;6.354;2023-07-24T04:59:02;17.60;99.90
27376;DHT22;14844;51.302;6.354;2023-07-24T05:01:32;17.60;99.90
27376;DHT22;14844;51.302;6.354;2023-07-24T05:03:57;17.70;99.90
27376;DHT22;14844;51.302;6.354;2023-07-24T05:06:23;17.70;99.90
27376;DHT22;14844;51.302;6.354;2023-07-24T05:08:48;17.70;99.90
27376;DHT22;14844;51.302;6.354;2023-07-24T05:11:14;17.70;99.90
27376;DHT22;14844;51.302;6.354;2023-07-24T05:13:39;17.70;99.90
27376;DHT22;14844;51.302;6.354;2023-07-24T05:16:05;17.70;99.90
27376;DHT22;14844;51.302;6.354;2023-07-24T05:18:30;17.70;99.90
27376;DHT22;14844;51.302;6.354;2023-07-24T05:20:56;17.70;99.90
27376;DHT22;14844;51.302;6.354;2023-07-24T05:23:21;17.80;99.90
27376;DHT22;14844;51.302;6.354;2023-07-24T05:25:47;17.80;99.90
27376;DHT22;14844;51.302;6.354;2023-07-24T05:28:12;17.80;99.90
27376;DHT22;14844;51.302;6.354;2023-07-24T05:30:38;17.80;99.90
27376;DHT22;14844;51.302;6.354;2023-07-24T05:33:03;17.90;99.90
27376;DHT22;14844;51.302;6.354;2023-07-24T05:35:28;17.90;99.90
27376;DHT22;14844;51.302;6.354;2023-07-24T05:37:54;17.90;99.90
27376;DHT22;14844;51.302;6.354;2023-07-24T05:40:19;18.00;99.90
27376;DHT22;14844;51.302;6.354;2023-07-24T05:42:45;18.00;99.90
27376;DHT22;14844;51.302;6.354;2023-07-24T05:45:11;18.00;99.90
27376;DHT22;14844;51.302;6.354;2023-07-24T05:47:37;18.00;99.90
27376;DHT22;14844;51.302;6.354;2023-07-24T05:50:02;18.20;99.90
27376;DHT22;14844;51.302;6.354;2023-07-24T05:55:31;18.40;99.90
27376;DHT22;14844;51.302;6.354;2023-07-24T05:57:56;18.40;99.90
27376;DHT22;14844;51.302;6.354;2023-07-24T06:00:22;18.60;99.90
27376;DHT22;14844;51.302;6.354;2023-07-24T06:02:47;18.90;99.90
27376;DHT22;14844;51.302;6.354;2023-07-24T06:05:13;19.10;99.90
27376;DHT22;14844;51.302;6.354;2023-07-24T06:07:38;19.10;99.90
27376;DHT22;14844;51.302;6.354;2023-07-24T06:10:04;19.20;99.90
27376;DHT22;14844;51.302;6.354;2023-07-24T06:12:29;19.20;99.90
27376;DHT22;14844;51.302;6.354;2023-07-24T06:14:55;19.10;99.90
27376;DHT22;14844;51.302;6.354;2023-07-24T06:17:20;19.10;99.90
27376;DHT22;14844;51.302;6.354;2023-07-24T06:19:45;19.20;99.90
27376;DHT22;14844;51.302;6.354;2023-07-24T06:22:11;19.20;99.90
27376;DHT22;14844;51.302;6.354;2023-07-24T06:24:36;19.40;99.90
27376;DHT22;14844;51.302;6.354;2023-07-24T06:27:03;19.60;99.90
27376;DHT22;14844;51.302;6.354;2023-07-24T06:29:31;19.70;99.90
27376;DHT22;14844;51.302;6.354;2023-07-24T06:31:57;19.70;99.90
27376;DHT22;14844;51.302;6.354;2023-07-24T06:34:22;19.60;99.90
27376;DHT22;14844;51.302;6.354;2023-07-24T06:36:48;19.50;99.90
27376;DHT22;14844;51.302;6.354;2023-07-24T06:39:13;19.40;99.90
27376;DHT22;14844;51.302;6.354;2023-07-24T06:41:39;19.40;99.90
27376;DHT22;14844;51.302;6.354;2023-07-24T06:44:04;19.40;99.90
27376;DHT22;14844;51.302;6.354;2023-07-24T06:46:31;19.30;99.90
27376;DHT22;14844;51.302;6.354;2023-07-24T06:48:56;19.10;99.90
27376;DHT22;14844;51.302;6.354;2023-07-24T06:51:21;19.00;99.90
27376;DHT22;14844;51.302;6.354;2023-07-24T06:53:47;18.90;99.90
27376;DHT22;14844;51.302;6.354;2023-07-24T06:56:12;18.80;99.90
27376;DHT22;14844;51.302;6.354;2023-07-24T06:58:38;18.80;99.90
27376;DHT22;14844;51.302;6.354;2023-07-24T07:01:07;18.80;99.90
27376;DHT22;14844;51.302;6.354;2023-07-24T07:03:33;18.70;99.90
27376;DHT22;14844;51.302;6.354;2023-07-24T07:06:00;18.70;99.90
27376;DHT22;14844;51.302;6.354;2023-07-24T07:08:26;18.70;99.90
27376;DHT22;14844;51.302;6.354;2023-07-24T07:10:56;18.70;99.90
27376;DHT22;14844;51.302;6.354;2023-07-24T07:13:21;18.70;99.90
27376;DHT22;14844;51.302;6.354;2023-07-24T07:15:46;18.70;99.90
27376;DHT22;14844;51.302;6.354;2023-07-24T07:18:12;18.80;99.90
27376;DHT22;14844;51.302;6.354;2023-07-24T07:20:37;18.80;99.90
27376;DHT22;14844;51.302;6.354;2023-07-24T07:23:03;18.80;99.90
27376;DHT22;14844;51.302;6.354;2023-07-24T07:25:28;18.70;99.90
27376;DHT22;14844;51.302;6.354;2023-07-24T07:27:54;18.70;99.90
27376;DHT22;14844;51.302;6.354;2023-07-24T07:30:19;18.80;99.90
27376;DHT22;14844;51.302;6.354;2023-07-24T07:32:44;18.90;99.90
27376;DHT22;14844;51.302;6.354;2023-07-24T07:35:10;19.10;99.90
27376;DHT22;14844;51.302;6.354;2023-07-24T07:37:35;19.30;99.90
27376;DHT22;14844;51.302;6.354;2023-07-24T07:40:01;19.50;99.90
27376;DHT22;14844;51.302;6.354;2023-07-24T07:42:26;19.60;99.90
27376;DHT22;14844;51.302;6.354;2023-07-24T07:44:52;19.70;99.90
27376;DHT22;14844;51.302;6.354;2023-07-24T07:47:17;19.90;99.90
27376;DHT22;14844;51.302;6.354;2023-07-24T07:49:43;19.90;99.90
27376;DHT22;14844;51.302;6.354;2023-07-24T07:52:08;19.90;99.90
27376;DHT22;14844;51.302;6.354;2023-07-24T07:54:34;20.10;99.90
27376;DHT22;14844;51.302;6.354;2023-07-24T07:56:59;20.20;99.90
27376;DHT22;14844;51.302;6.354;2023-07-24T07:59:25;20.30;99.90
27376;DHT22;14844;51.302;6.354;2023-07-24T08:01:50;20.50;99.90
27376;DHT22;14844;51.302;6.354;2023-07-24T08:04:16;20.60;99.90
27376;DHT22;14844;51.302;6.354;2023-07-24T08:06:43;20.60;99.90
27376;DHT22;14844;51.302;6.354;2023-07-24T08:09:08;20.60;99.90
27376;DHT22;14844;51.302;6.354;2023-07-24T08:11:33;20.60;99.90
27376;DHT22;14844;51.302;6.354;2023-07-24T08:13:59;20.60;99.90
27376;DHT22;14844;51.302;6.354;2023-07-24T08:16:24;20.60;99.90
27376;DHT22;14844;51.302;6.354;2023-07-24T08:18:50;20.90;99.90
27376;DHT22;14844;51.302;6.354;2023-07-24T08:21:15;21.20;99.90
27376;DHT22;14844;51.302;6.354;2023-07-24T08:23:41;21.40;99.90
27376;DHT22;14844;51.302;6.354;2023-07-24T08:26:06;21.50;99.90
27376;DHT22;14844;51.302;6.354;2023-07-24T08:28:32;21.50;99.90
27376;DHT22;14844;51.302;6.354;2023-07-24T08:30:59;21.50;99.90
27376;DHT22;14844;51.302;6.354;2023-07-24T08:33:27;21.50;99.90
27376;DHT22;14844;51.302;6.354;2023-07-24T08:35:59;21.60;99.90
27376;DHT22;14844;51.302;6.354;2023-07-24T08:38:25;21.90;99.90
27376;DHT22;14844;51.302;6.354;2023-07-24T08:40:59;21.90;99.90
27376;DHT22;14844;51.302;6.354;2023-07-24T08:43:25;21.80;99.90
27376;DHT22;14844;51.302;6.354;2023-07-24T08:45:50;22.00;99.90
27376;DHT22;14844;51.302;6.354;2023-07-24T08:48:16;22.00;99.90
27376;DHT22;14844;51.302;6.354;2023-07-24T08:50:42;21.80;99.90
27376;DHT22;14844;51.302;6.354;2023-07-24T08:53:08;22.10;99.90
27376;DHT22;14844;51.302;6.354;2023-07-24T08:55:33;22.30;99.90
27376;DHT22;14844;51.302;6.354;2023-07-24T08:57:59;22.30;99.90
27376;DHT22;14844;51.302;6.354;2023-07-24T09:00:25;22.10;99.90
27376;DHT22;14844;51.302;6.354;2023-07-24T09:02:50;22.00;99.90
27376;DHT22;14844;51.302;6.354;2023-07-24T09:05:15;22.00;99.90
27376;DHT22;14844;51.302;6.354;2023-07-24T09:07:42;22.10;99.90
27376;DHT22;14844;51.302;6.354;2023-07-24T09:10:07;21.80;99.90
27376;DHT22;14844;51.302;6.354;2023-07-24T09:12:33;21.80;99.90
27376;DHT22;14844;51.302;6.354;2023-07-24T09:15:02;21.80;99.90
27376;DHT22;14844;51.302;6.354;2023-07-24T09:17:28;21.80;99.90
27376;DHT22;14844;51.302;6.354;2023-07-24T09:19:57;21.80;99.90
27376;DHT22;14844;51.302;6.354;2023-07-24T09:22:22;22.00;99.90
27376;DHT22;14844;51.302;6.354;2023-07-24T09:24:52;22.50;99.90
27376;DHT22;14844;51.302;6.354;2023-07-24T09:27:18;22.70;99.90
27376;DHT22;14844;51.302;6.354;2023-07-24T09:29:43;23.00;99.90
27376;DHT22;14844;51.302;6.354;2023-07-24T09:32:19;23.50;99.90
27376;DHT22;14844;51.302;6.354;2023-07-24T09:34:44;23.70;99.90
27376;DHT22;14844;51.302;6.354;2023-07-24T09:37:10;24.40;99.90
27376;DHT22;14844;51.302;6.354;2023-07-24T09:39:35;24.50;99.90
27376;DHT22;14844;51.302;6.354;2023-07-24T09:42:04;24.40;99.90
27376;DHT22;14844;51.302;6.354;2023-07-24T09:44:30;24.00;99.90
27376;DHT22;14844;51.302;6.354;2023-07-24T09:46:56;23.60;99.90
27376;DHT22;14844;51.302;6.354;2023-07-24T09:49:21;23.50;99.90
27376;DHT22;14844;51.302;6.354;2023-07-24T09:51:47;23.10;99.90
27376;DHT22;14844;51.302;6.354;2023-07-24T09:54:15;22.80;99.90
27376;DHT22;14844;51.302;6.354;2023-07-24T09:56:45;22.80;99.90
27376;DHT22;14844;51.302;6.354;2023-07-24T09:59:11;22.70;99.90
27376;DHT22;14844;51.302;6.354;2023-07-24T10:01:37;23.00;99.90
27376;DHT22;14844;51.302;6.354;2023-07-24T10:04:03;23.00;99.90
27376;DHT22;14844;51.302;6.354;2023-07-24T10:06:29;22.90;99.90
27376;DHT22;14844;51.302;6.354;2023-07-24T10:08:55;23.00;99.90
27376;DHT22;14844;51.302;6.354;2023-07-24T10:11:21;22.80;99.90
27376;DHT22;14844;51.302;6.354;2023-07-24T10:13:47;22.90;99.90
27376;DHT22;14844;51.302;6.354;2023-07-24T10:16:12;22.90;99.90
27376;DHT22;14844;51.302;6.354;2023-07-24T10:18:43;23.10;99.90
27376;DHT22;14844;51.302;6.354;2023-07-24T10:21:09;23.20;99.90
27376;DHT22;14844;51.302;6.354;2023-07-24T10:23:42;23.20;99.90
27376;DHT22;14844;51.302;6.354;2023-07-24T10:26:07;23.20;99.90
27376;DHT22;14844;51.302;6.354;2023-07-24T10:28:37;23.30;99.90
27376;DHT22;14844;51.302;6.354;2023-07-24T10:31:06;22.90;99.90
27376;DHT22;14844;51.302;6.354;2023-07-24T10:33:35;22.90;99.90
27376;DHT22;14844;51.302;6.354;2023-07-24T10:36:06;22.80;99.90
27376;DHT22;14844;51.302;6.354;2023-07-24T10:38:34;22.50;99.90
27376;DHT22;14844;51.302;6.354;2023-07-24T10:41:01;22.20;99.90
27376;DHT22;14844;51.302;6.354;2023-07-24T10:43:27;21.80;99.90
27376;DHT22;14844;51.302;6.354;2023-07-24T10:45:53;21.40;99.90
27376;DHT22;14844;51.302;6.354;2023-07-24T10:48:20;20.80;99.90
27376;DHT22;14844;51.302;6.354;2023-07-24T10:50:47;20.30;99.90
27376;DHT22;14844;51.302;6.354;2023-07-24T10:53:13;19.50;99.90
27376;DHT22;14844;51.302;6.354;2023-07-24T10:55:41;19.00;99.90
27376;DHT22;14844;51.302;6.354;2023-07-24T10:58:07;18.90;99.90
27376;DHT22;14844;51.302;6.354;2023-07-24T11:00:33;18.80;99.90
27376;DHT22;14844;51.302;6.354;2023-07-24T11:02:58;18.80;99.90
27376;DHT22;14844;51.302;6.354;2023-07-24T11:05:23;19.00;99.90
27376;DHT22;14844;51.302;6.354;2023-07-24T11:07:49;18.90;99.90
27376;DHT22;14844;51.302;6.354;2023-07-24T11:10:15;18.90;99.90
27376;DHT22;14844;51.302;6.354;2023-07-24T11:12:41;18.90;99.90
27376;DHT22;14844;51.302;6.354;2023-07-24T11:15:07;18.90;99.90
27376;DHT22;14844;51.302;6.354;2023-07-24T11:17:33;18.70;99.90
27376;DHT22;14844;51.302;6.354;2023-07-24T11:20:10;18.70;99.90
27376;DHT22;14844;51.302;6.354;2023-07-24T11:22:37;18.60;99.90
27376;DHT22;14844;51.302;6.354;2023-07-24T11:25:03;18.70;99.90
27376;DHT22;14844;51.302;6.354;2023-07-24T11:27:30;18.80;99.90
27376;DHT22;14844;51.302;6.354;2023-07-24T11:29:56;18.80;99.90
27376;DHT22;14844;51.302;6.354;2023-07-24T11:32:21;18.90;99.90
27376;DHT22;14844;51.302;6.354;2023-07-24T11:34:47;19.00;99.90
27376;DHT22;14844;51.302;6.354;2023-07-24T11:37:13;19.10;99.90
27376;DHT22;14844;51.302;6.354;2023-07-24T11:39:39;19.40;99.90
27376;DHT22;14844;51.302;6.354;2023-07-24T11:42:04;19.50;99.90
27376;DHT22;14844;51.302;6.354;2023-07-24T11:44:30;19.70;99.90
27376;DHT22;14844;51.302;6.354;2023-07-24T11:47:05;20.00;99.90
27376;DHT22;14844;51.302;6.354;2023-07-24T11:49:31;20.20;99.90
27376;DHT22;14844;51.302;6.354;2023-07-24T11:52:00;20.30;99.90
27376;DHT22;14844;51.302;6.354;2023-07-24T11:54:26;20.20;99.90
27376;DHT22;14844;51.302;6.354;2023-07-24T11:56:52;20.50;99.90
27376;DHT22;14844;51.302;6.354;2023-07-24T11:59:17;20.80;99.90
27376;DHT22;14844;51.302;6.354;2023-07-24T12:01:46;21.00;99.90
27376;DHT22;14844;51.302;6.354;2023-07-24T12:04:13;21.50;99.90
27376;DHT22;14844;51.302;6.354;2023-07-24T12:06:38;21.80;99.90
27376;DHT22;14844;51.302;6.354;2023-07-24T12:09:04;22.10;99.90
27376;DHT22;14844;51.302;6.354;2023-07-24T12:11:31;22.30;99.90
27376;DHT22;14844;51.302;6.354;2023-07-24T12:13:57;22.70;99.90
27376;DHT22;14844;51.302;6.354;2023-07-24T12:16:22;23.10;99.90
27376;DHT22;14844;51.302;6.354;2023-07-24T12:18:48;22.90;99.90
27376;DHT22;14844;51.302;6.354;2023-07-24T12:21:13;22.50;99.90
27376;DHT22;14844;51.302;6.354;2023-07-24T12:23:38;22.40;99.90
27376;DHT22;14844;51.302;6.354;2023-07-24T12:26:04;22.70;99.90
27376;DHT22;14844;51.302;6.354;2023-07-24T12:28:29;22.70;99.90
27376;DHT22;14844;51.302;6.354;2023-07-24T12:30:55;22.50;99.90
27376;DHT22;14844;51.302;6.354;2023-07-24T12:33:20;22.30;99.90
27376;DHT22;14844;51.302;6.354;2023-07-24T12:35:49;22.30;99.90
27376;DHT22;14844;51.302;6.354;2023-07-24T12:38:15;22.20;99.90
27376;DHT22;14844;51.302;6.354;2023-07-24T12:40:40;22.20;99.90
27376;DHT22;14844;51.302;6.354;2023-07-24T12:43:05;22.30;99.90
27376;DHT22;14844;51.302;6.354;2023-07-24T12:45:31;22.50;99.90
27376;DHT22;14844;51.302;6.354;2023-07-24T12:47:56;22.60;99.90
27376;DHT22;14844;51.302;6.354;2023-07-24T12:50:22;22.70;99.90
27376;DHT22;14844;51.302;6.354;2023-07-24T12:52:48;22.80;99.90
27376;DHT22;14844;51.302;6.354;2023-07-24T12:55:14;22.70;99.90
27376;DHT22;14844;51.302;6.354;2023-07-24T12:57:39;22.30;99.90
27376;DHT22;14844;51.302;6.354;2023-07-24T13:00:05;22.30;99.90
27376;DHT22;14844;51.302;6.354;2023-07-24T13:02:31;22.30;99.90
27376;DHT22;14844;51.302;6.354;2023-07-24T13:04:57;22.30;99.90
27376;DHT22;14844;51.302;6.354;2023-07-24T13:07:22;22.40;99.90
27376;DHT22;14844;51.302;6.354;2023-07-24T13:09:48;22.80;99.90
27376;DHT22;14844;51.302;6.354;2023-07-24T13:12:13;22.80;99.90
27376;DHT22;14844;51.302;6.354;2023-07-24T13:14:39;22.80;99.90
27376;DHT22;14844;51.302;6.354;2023-07-24T13:17:04;23.00;99.90
27376;DHT22;14844;51.302;6.354;2023-07-24T13:19:30;22.70;99.90
27376;DHT22;14844;51.302;6.354;2023-07-24T13:21:56;22.70;99.90
27376;DHT22;14844;51.302;6.354;2023-07-24T13:24:22;22.70;99.90
27376;DHT22;14844;51.302;6.354;2023-07-24T13:26:47;22.70;99.90
27376;DHT22;14844;51.302;6.354;2023-07-24T13:29:13;22.90;99.90
27376;DHT22;14844;51.302;6.354;2023-07-24T13:31:38;23.10;99.90
27376;DHT22;14844;51.302;6.354;2023-07-24T13:34:06;23.40;99.90
27376;DHT22;14844;51.302;6.354;2023-07-24T13:36:31;23.60;99.90
27376;DHT22;14844;51.302;6.354;2023-07-24T13:38:57;23.60;99.90
27376;DHT22;14844;51.302;6.354;2023-07-24T13:41:22;23.50;99.90
27376;DHT22;14844;51.302;6.354;2023-07-24T13:43:48;23.30;99.90
27376;DHT22;14844;51.302;6.354;2023-07-24T13:46:13;23.30;99.90
27376;DHT22;14844;51.302;6.354;2023-07-24T13:48:38;23.20;99.90
27376;DHT22;14844;51.302;6.354;2023-07-24T13:51:04;23.00;99.90
27376;DHT22;14844;51.302;6.354;2023-07-24T13:53:29;22.90;99.90
27376;DHT22;14844;51.302;6.354;2023-07-24T13:55:55;22.80;99.90
27376;DHT22;14844;51.302;6.354;2023-07-24T13:58:20;22.70;99.90
27376;DHT22;14844;51.302;6.354;2023-07-24T14:00:46;22.70;99.90
27376;DHT22;14844;51.302;6.354;2023-07-24T14:03:11;22.80;99.90
27376;DHT22;14844;51.302;6.354;2023-07-24T14:05:37;23.00;99.90
27376;DHT22;14844;51.302;6.354;2023-07-24T14:08:02;23.10;99.90
27376;DHT22;14844;51.302;6.354;2023-07-24T14:10:28;23.00;99.90
27376;DHT22;14844;51.302;6.354;2023-07-24T14:12:53;22.90;99.90
27376;DHT22;14844;51.302;6.354;2023-07-24T14:15:19;22.90;99.90
27376;DHT22;14844;51.302;6.354;2023-07-24T14:17:44;23.00;99.90
27376;DHT22;14844;51.302;6.354;2023-07-24T14:20:10;23.00;99.90
27376;DHT22;14844;51.302;6.354;2023-07-24T14:22:36;23.00;99.90
27376;DHT22;14844;51.302;6.354;2023-07-24T14:25:01;22.70;99.90
27376;DHT22;14844;51.302;6.354;2023-07-24T14:27:27;22.70;99.90
27376;DHT22;14844;51.302;6.354;2023-07-24T14:29:52;22.80;99.90
27376;DHT22;14844;51.302;6.354;2023-07-24T14:32:18;23.00;99.90
27376;DHT22;14844;51.302;6.354;2023-07-24T14:34:44;23.10;99.90
27376;DHT22;14844;51.302;6.354;2023-07-24T14:37:09;23.40;99.90
27376;DHT22;14844;51.302;6.354;2023-07-24T14:39:35;23.90;99.90
27376;DHT22;14844;51.302;6.354;2023-07-24T14:42:02;23.90;99.90
27376;DHT22;14844;51.302;6.354;2023-07-24T14:44:27;23.70;99.90
27376;DHT22;14844;51.302;6.354;2023-07-24T14:46:53;23.50;99.90
27376;DHT22;14844;51.302;6.354;2023-07-24T14:49:18;24.00;99.90
27376;DHT22;14844;51.302;6.354;2023-07-24T14:51:43;24.70;99.80
27376;DHT22;14844;51.302;6.354;2023-07-24T14:54:09;25.20;97.60
27376;DHT22;14844;51.302;6.354;2023-07-24T14:56:34;25.20;96.90
27376;DHT22;14844;51.302;6.354;2023-07-24T14:59:00;24.60;97.40
27376;DHT22;14844;51.302;6.354;2023-07-24T15:01:26;24.60;96.70
27376;DHT22;14844;51.302;6.354;2023-07-24T15:03:53;24.30;96.30
27376;DHT22;14844;51.302;6.354;2023-07-24T15:06:18;24.20;96.60
27376;DHT22;14844;51.302;6.354;2023-07-24T15:08:44;24.50;96.80
27376;DHT22;14844;51.302;6.354;2023-07-24T15:11:09;25.10;96.60
27376;DHT22;14844;51.302;6.354;2023-07-24T15:13:34;24.90;96.20
27376;DHT22;14844;51.302;6.354;2023-07-24T15:16:00;24.00;97.10
27376;DHT22;14844;51.302;6.354;2023-07-24T15:18:25;23.10;98.70
27376;DHT22;14844;51.302;6.354;2023-07-24T15:20:51;22.50;99.90
27376;DHT22;14844;51.302;6.354;2023-07-24T15:23:18;22.10;99.90
27376;DHT22;14844;51.302;6.354;2023-07-24T15:25:44;21.80;99.90